Dike, Texas
Current Conditions -  °F | °C
As of 11:15 AM on Friday 19 Dec 2014 (Local Time) from KSLR Reporting Station
Haze Haze  
Wind Chill:   Ceiling: 500
Heat Index:   Visibility: 4mi
Dew Point:   Wind: 7mph
Humidity: 97%   Direction: 40°NE
Pressure: 30.23"   Gusts: NA
Location:  33.24°N, 95.48°W
Report Text: KSLR 191715Z AUTO 04006KT 4SM BR OVC005 08/08 A3023 RMK AO2 T00800075
Loading
Personal Weather Stations






























Interactive Weather Map New forecast layout! Learn more

10-Day Weather Forecast

Advertisements
Track Severe Weather on mobile